Main page
METAR-TAF:

METAR-TAF

Airports :

Anatom Airport

Aneityum, Vanuatu

latitude: 20-14-57S, longitude: 169-46-17E, elevation: 2 m

Current weather observation

The report was made 2 hours and 28 minutes ago, at 12:00 UTC
Wind 3 kt from the Southeast
Temperature 26°C
Humidity 84%
Pressure 1013 hPa
Visibility 10 km or more
Scattered clouds at a height of 2500 ft

METAR: NVVA 221200Z 14003KT 9999 SCT025 26/23 Q1013

Time: 01:28 (14:28 UTC)

Forecast

The report was made 4 hours and 28 minutes ago, at 10:00 UTC
Forecast valid from 22 at 12 UTC to 23 at 12 UTC
Wind 5 kt from the East/Southeast
Visibility 10 km or more
Scattered clouds at a height of 2000 ft
Probability 40%
between IN and TE UTC
Visibility: 9000 m
Broken clouds at a height of 1800 ft
light rain showers
Becoming
from 22 at 19 UTC to 22 at 21 UTC
Wind 14 kt from the East/Southeast

TAF: NVVA 221000Z 2212/2312 12005KT 9999 SCT020 PROB40 INTER 2212/2218 9000 -SHRA BKN018 BECMG 2219/2221 12014KT

Weather observations and forecasts of more than 4000 airports (METAR and TAF reports).

The available stations are represented by yellow and red dots on the map.

Hover mouse over dot to see the name of the station.

Then click to see weather observations and forecasts.

To change the map : click on the green buttons with a black cross to zoom in, on the green button with a dash to zoom out, or on the green arrows for adjacent maps.


METAR-TAF: